sensor_id;sensor_type;location;lat;lon;timestamp;pressure;altitude;pressure_sealevel;temperature;humidity
18988;BME280;5494;51.796;10.952;2023-09-07T00:01:07;99670.84;;;18.61;85.64
18988;BME280;5494;51.796;10.952;2023-09-07T00:03:35;99667.59;;;18.58;85.26
18988;BME280;5494;51.796;10.952;2023-09-07T00:06:08;99670.97;;;18.47;85.51
18988;BME280;5494;51.796;10.952;2023-09-07T00:08:37;99675.63;;;18.43;86.23
18988;BME280;5494;51.796;10.952;2023-09-07T00:11:07;99676.78;;;18.39;86.66
18988;BME280;5494;51.796;10.952;2023-09-07T00:13:36;99683.97;;;18.37;86.71
18988;BME280;5494;51.796;10.952;2023-09-07T00:16:05;99672.78;;;18.34;87.23
18988;BME280;5494;51.796;10.952;2023-09-07T00:18:34;99676.28;;;18.34;87.42
18988;BME280;5494;51.796;10.952;2023-09-07T00:21:03;99667.78;;;18.31;88.34
18988;BME280;5494;51.796;10.952;2023-09-07T00:23:32;99671.69;;;18.25;89.02
18988;BME280;5494;51.796;10.952;2023-09-07T00:26:00;99675.56;;;18.20;89.94
18988;BME280;5494;51.796;10.952;2023-09-07T00:28:29;99670.84;;;18.12;90.96
18988;BME280;5494;51.796;10.952;2023-09-07T00:30:58;99673.91;;;18.06;91.28
18988;BME280;5494;51.796;10.952;2023-09-07T00:33:26;99676.44;;;18.07;92.30
18988;BME280;5494;51.796;10.952;2023-09-07T00:35:54;99671.81;;;17.98;92.40
18988;BME280;5494;51.796;10.952;2023-09-07T00:38:22;99673.41;;;18.01;91.98
18988;BME280;5494;51.796;10.952;2023-09-07T00:40:50;99678.25;;;17.94;92.75
18988;BME280;5494;51.796;10.952;2023-09-07T00:43:19;99673.09;;;17.93;93.01
18988;BME280;5494;51.796;10.952;2023-09-07T00:45:49;99672.16;;;17.94;92.97
18988;BME280;5494;51.796;10.952;2023-09-07T00:48:18;99661.72;;;17.92;92.81
18988;BME280;5494;51.796;10.952;2023-09-07T00:50:48;99671.84;;;17.86;92.70
18988;BME280;5494;51.796;10.952;2023-09-07T00:53:17;99672.06;;;17.83;93.26
18988;BME280;5494;51.796;10.952;2023-09-07T00:55:45;99669.13;;;17.75;94.06
18988;BME280;5494;51.796;10.952;2023-09-07T00:58:14;99671.09;;;17.71;94.80
18988;BME280;5494;51.796;10.952;2023-09-07T01:00:44;99671.44;;;17.66;94.85
18988;BME280;5494;51.796;10.952;2023-09-07T01:03:14;99670.47;;;17.67;95.11
18988;BME280;5494;51.796;10.952;2023-09-07T01:05:51;99661.41;;;17.59;95.48
18988;BME280;5494;51.796;10.952;2023-09-07T01:08:24;99666.56;;;17.60;95.07
18988;BME280;5494;51.796;10.952;2023-09-07T01:10:54;99661.06;;;17.51;95.40
18988;BME280;5494;51.796;10.952;2023-09-07T01:13:22;99662.25;;;17.47;96.30
18988;BME280;5494;51.796;10.952;2023-09-07T01:15:52;99667.81;;;17.42;96.15
18988;BME280;5494;51.796;10.952;2023-09-07T01:18:22;99664.34;;;17.42;96.08
18988;BME280;5494;51.796;10.952;2023-09-07T01:20:52;99665.47;;;17.38;96.43
18988;BME280;5494;51.796;10.952;2023-09-07T01:23:24;99664.72;;;17.36;96.99
18988;BME280;5494;51.796;10.952;2023-09-07T01:25:53;99668.22;;;17.36;97.00
18988;BME280;5494;51.796;10.952;2023-09-07T01:28:23;99663.06;;;17.35;97.28
18988;BME280;5494;51.796;10.952;2023-09-07T01:30:51;99659.47;;;17.36;97.07
18988;BME280;5494;51.796;10.952;2023-09-07T01:33:20;99665.56;;;17.36;97.54
18988;BME280;5494;51.796;10.952;2023-09-07T01:35:48;99671.06;;;17.33;97.93
18988;BME280;5494;51.796;10.952;2023-09-07T01:38:17;99663.50;;;17.28;98.00
18988;BME280;5494;51.796;10.952;2023-09-07T01:40:46;99662.94;;;17.23;98.67
18988;BME280;5494;51.796;10.952;2023-09-07T01:43:14;99658.84;;;17.19;99.06
18988;BME280;5494;51.796;10.952;2023-09-07T01:45:42;99659.59;;;17.21;99.56
18988;BME280;5494;51.796;10.952;2023-09-07T01:48:14;99664.28;;;17.16;100.00
18988;BME280;5494;51.796;10.952;2023-09-07T01:50:42;99660.19;;;17.12;99.51
18988;BME280;5494;51.796;10.952;2023-09-07T01:53:10;99657.97;;;17.06;100.00
18988;BME280;5494;51.796;10.952;2023-09-07T01:55:39;99669.22;;;17.08;100.00
18988;BME280;5494;51.796;10.952;2023-09-07T01:58:08;99665.78;;;17.08;99.73
18988;BME280;5494;51.796;10.952;2023-09-07T02:00:37;99666.72;;;17.07;100.00
18988;BME280;5494;51.796;10.952;2023-09-07T02:03:06;99675.81;;;17.01;100.00
18988;BME280;5494;51.796;10.952;2023-09-07T02:05:35;99663.53;;;17.02;100.00
18988;BME280;5494;51.796;10.952;2023-09-07T02:08:04;99661.22;;;16.97;100.00
18988;BME280;5494;51.796;10.952;2023-09-07T02:10:33;99666.56;;;16.96;100.00
18988;BME280;5494;51.796;10.952;2023-09-07T02:13:02;99666.28;;;17.00;100.00
18988;BME280;5494;51.796;10.952;2023-09-07T02:15:32;99672.13;;;16.91;100.00
18988;BME280;5494;51.796;10.952;2023-09-07T02:18:00;99672.53;;;16.85;100.00
18988;BME280;5494;51.796;10.952;2023-09-07T02:20:31;99670.44;;;16.90;100.00
18988;BME280;5494;51.796;10.952;2023-09-07T02:22:59;99669.06;;;16.84;100.00
18988;BME280;5494;51.796;10.952;2023-09-07T02:25:28;99668.41;;;16.81;100.00
18988;BME280;5494;51.796;10.952;2023-09-07T02:27:57;99669.63;;;16.75;100.00
18988;BME280;5494;51.796;10.952;2023-09-07T02:30:26;99674.16;;;16.73;100.00
18988;BME280;5494;51.796;10.952;2023-09-07T02:32:56;99670.72;;;16.73;100.00
18988;BME280;5494;51.796;10.952;2023-09-07T02:35:25;99670.13;;;16.68;100.00
18988;BME280;5494;51.796;10.952;2023-09-07T02:37:53;99669.09;;;16.70;100.00
18988;BME280;5494;51.796;10.952;2023-09-07T02:40:22;99666.56;;;16.69;100.00
18988;BME280;5494;51.796;10.952;2023-09-07T02:42:51;99664.47;;;16.74;100.00
18988;BME280;5494;51.796;10.952;2023-09-07T02:45:19;99659.97;;;16.76;100.00
18988;BME280;5494;51.796;10.952;2023-09-07T02:47:47;99669.28;;;16.67;100.00
18988;BME280;5494;51.796;10.952;2023-09-07T02:50:19;99669.41;;;16.66;100.00
18988;BME280;5494;51.796;10.952;2023-09-07T02:52:48;99665.94;;;16.65;100.00
18988;BME280;5494;51.796;10.952;2023-09-07T02:55:19;99670.34;;;16.65;100.00
18988;BME280;5494;51.796;10.952;2023-09-07T02:57:47;99672.03;;;16.66;100.00
18988;BME280;5494;51.796;10.952;2023-09-07T03:00:15;99666.56;;;16.69;100.00
18988;BME280;5494;51.796;10.952;2023-09-07T03:02:45;99679.31;;;16.75;100.00
18988;BME280;5494;51.796;10.952;2023-09-07T03:05:13;99671.91;;;16.67;100.00
18988;BME280;5494;51.796;10.952;2023-09-07T03:07:46;99672.38;;;16.60;100.00
18988;BME280;5494;51.796;10.952;2023-09-07T03:10:16;99671.66;;;16.58;100.00
18988;BME280;5494;51.796;10.952;2023-09-07T03:12:46;99667.13;;;16.60;100.00
18988;BME280;5494;51.796;10.952;2023-09-07T03:15:15;99671.75;;;16.56;100.00
18988;BME280;5494;51.796;10.952;2023-09-07T03:17:43;99667.44;;;16.55;100.00
18988;BME280;5494;51.796;10.952;2023-09-07T03:20:13;99669.41;;;16.51;100.00
18988;BME280;5494;51.796;10.952;2023-09-07T03:22:47;99669.97;;;16.57;100.00
18988;BME280;5494;51.796;10.952;2023-09-07T03:25:15;99679.81;;;16.53;100.00
18988;BME280;5494;51.796;10.952;2023-09-07T03:27:44;99669.59;;;16.48;100.00
18988;BME280;5494;51.796;10.952;2023-09-07T03:30:13;99672.31;;;16.47;100.00
18988;BME280;5494;51.796;10.952;2023-09-07T03:32:42;99671.47;;;16.46;100.00
18988;BME280;5494;51.796;10.952;2023-09-07T03:35:10;99669.81;;;16.45;100.00
18988;BME280;5494;51.796;10.952;2023-09-07T03:37:39;99677.88;;;16.42;100.00
18988;BME280;5494;51.796;10.952;2023-09-07T03:40:09;99671.69;;;16.43;100.00
18988;BME280;5494;51.796;10.952;2023-09-07T03:42:39;99677.78;;;16.44;100.00
18988;BME280;5494;51.796;10.952;2023-09-07T03:45:09;99671.38;;;16.48;100.00
18988;BME280;5494;51.796;10.952;2023-09-07T03:47:38;99675.78;;;16.47;100.00
18988;BME280;5494;51.796;10.952;2023-09-07T03:50:08;99680.69;;;16.39;100.00
18988;BME280;5494;51.796;10.952;2023-09-07T03:52:37;99672.25;;;16.34;100.00
18988;BME280;5494;51.796;10.952;2023-09-07T03:55:09;99663.84;;;16.29;100.00
18988;BME280;5494;51.796;10.952;2023-09-07T03:57:38;99677.06;;;16.28;100.00
18988;BME280;5494;51.796;10.952;2023-09-07T04:00:08;99679.13;;;16.23;100.00
18988;BME280;5494;51.796;10.952;2023-09-07T04:02:39;99677.44;;;16.22;100.00
18988;BME280;5494;51.796;10.952;2023-09-07T04:05:09;99671.91;;;16.26;100.00
18988;BME280;5494;51.796;10.952;2023-09-07T04:07:38;99663.94;;;16.28;100.00
18988;BME280;5494;51.796;10.952;2023-09-07T04:10:08;99670.22;;;16.25;100.00
18988;BME280;5494;51.796;10.952;2023-09-07T04:12:37;99664.50;;;16.19;100.00
18988;BME280;5494;51.796;10.952;2023-09-07T04:15:06;99666.09;;;16.21;100.00
18988;BME280;5494;51.796;10.952;2023-09-07T04:17:37;99663.66;;;16.18;100.00
18988;BME280;5494;51.796;10.952;2023-09-07T04:20:09;99666.19;;;16.20;100.00
18988;BME280;5494;51.796;10.952;2023-09-07T04:22:39;99663.66;;;16.18;100.00
18988;BME280;5494;51.796;10.952;2023-09-07T04:25:09;99662.94;;;16.16;100.00
18988;BME280;5494;51.796;10.952;2023-09-07T04:27:38;99666.41;;;16.17;100.00
18988;BME280;5494;51.796;10.952;2023-09-07T04:30:09;99660.41;;;16.14;100.00
18988;BME280;5494;51.796;10.952;2023-09-07T04:32:38;99656.19;;;16.12;100.00
18988;BME280;5494;51.796;10.952;2023-09-07T04:35:07;99664.03;;;16.12;100.00
18988;BME280;5494;51.796;10.952;2023-09-07T04:37:37;99661.63;;;16.09;100.00
18988;BME280;5494;51.796;10.952;2023-09-07T04:40:07;99665.00;;;16.11;100.00
18988;BME280;5494;51.796;10.952;2023-09-07T04:42:37;99661.41;;;16.12;100.00
18988;BME280;5494;51.796;10.952;2023-09-07T04:45:07;99674.28;;;16.17;100.00
18988;BME280;5494;51.796;10.952;2023-09-07T04:47:36;99667.69;;;16.24;100.00
18988;BME280;5494;51.796;10.952;2023-09-07T04:50:06;99670.38;;;16.36;100.00
18988;BME280;5494;51.796;10.952;2023-09-07T04:52:35;99677.28;;;16.51;100.00
18988;BME280;5494;51.796;10.952;2023-09-07T04:55:04;99677.06;;;16.69;100.00
18988;BME280;5494;51.796;10.952;2023-09-07T04:57:37;99673.38;;;16.85;100.00
18988;BME280;5494;51.796;10.952;2023-09-07T05:00:07;99675.44;;;17.07;100.00
18988;BME280;5494;51.796;10.952;2023-09-07T05:02:36;99672.00;;;17.32;100.00
18988;BME280;5494;51.796;10.952;2023-09-07T05:05:09;99687.59;;;17.48;100.00
18988;BME280;5494;51.796;10.952;2023-09-07T05:07:38;99687.63;;;17.73;100.00
18988;BME280;5494;51.796;10.952;2023-09-07T05:10:08;99674.56;;;17.97;100.00
18988;BME280;5494;51.796;10.952;2023-09-07T05:12:40;99674.84;;;18.18;99.68
18988;BME280;5494;51.796;10.952;2023-09-07T05:15:09;99669.72;;;18.53;96.62
18988;BME280;5494;51.796;10.952;2023-09-07T05:17:38;99665.94;;;18.80;92.31
18988;BME280;5494;51.796;10.952;2023-09-07T05:20:08;99667.50;;;19.18;89.71
18988;BME280;5494;51.796;10.952;2023-09-07T05:22:37;99678.16;;;19.51;86.96
18988;BME280;5494;51.796;10.952;2023-09-07T05:25:08;99667.06;;;19.81;83.55
18988;BME280;5494;51.796;10.952;2023-09-07T05:27:39;99662.63;;;20.15;81.18
18988;BME280;5494;51.796;10.952;2023-09-07T05:30:08;99671.75;;;20.44;77.99
18988;BME280;5494;51.796;10.952;2023-09-07T05:32:38;99677.59;;;20.91;75.72
18988;BME280;5494;51.796;10.952;2023-09-07T05:35:07;99677.03;;;21.19;72.34
18988;BME280;5494;51.796;10.952;2023-09-07T05:37:37;99683.56;;;21.57;71.07
18988;BME280;5494;51.796;10.952;2023-09-07T05:40:09;99675.47;;;22.40;66.98
18988;BME280;5494;51.796;10.952;2023-09-07T05:42:39;99679.97;;;22.68;64.49
18988;BME280;5494;51.796;10.952;2023-09-07T05:45:08;99677.66;;;22.85;62.55
18988;BME280;5494;51.796;10.952;2023-09-07T05:47:37;99679.50;;;23.23;61.58
18988;BME280;5494;51.796;10.952;2023-09-07T05:50:07;99679.56;;;23.69;58.52
18988;BME280;5494;51.796;10.952;2023-09-07T05:52:35;99675.06;;;24.16;55.93
18988;BME280;5494;51.796;10.952;2023-09-07T05:55:05;99677.50;;;24.37;53.75
18988;BME280;5494;51.796;10.952;2023-09-07T05:57:33;99683.88;;;24.26;54.68
18988;BME280;5494;51.796;10.952;2023-09-07T06:00:06;99686.34;;;24.28;54.57
18988;BME280;5494;51.796;10.952;2023-09-07T06:02:41;99676.03;;;24.52;54.07
18988;BME280;5494;51.796;10.952;2023-09-07T06:05:11;99679.44;;;24.62;53.77
18988;BME280;5494;51.796;10.952;2023-09-07T06:07:39;99680.97;;;24.65;52.93
18988;BME280;5494;51.796;10.952;2023-09-07T06:10:09;99679.91;;;24.58;53.49
18988;BME280;5494;51.796;10.952;2023-09-07T06:12:37;99690.81;;;24.55;53.94
18988;BME280;5494;51.796;10.952;2023-09-07T06:15:08;99688.09;;;24.47;53.67
18988;BME280;5494;51.796;10.952;2023-09-07T06:17:38;99685.63;;;24.81;52.87
18988;BME280;5494;51.796;10.952;2023-09-07T06:20:09;99686.66;;;24.97;51.49
18988;BME280;5494;51.796;10.952;2023-09-07T06:22:37;99689.84;;;25.19;51.01
18988;BME280;5494;51.796;10.952;2023-09-07T06:25:06;99700.84;;;25.41;51.37
18988;BME280;5494;51.796;10.952;2023-09-07T06:27:34;99701.13;;;25.56;49.94
18988;BME280;5494;51.796;10.952;2023-09-07T06:30:03;99704.53;;;26.18;48.56
18988;BME280;5494;51.796;10.952;2023-09-07T06:32:33;99713.19;;;26.46;48.56
18988;BME280;5494;51.796;10.952;2023-09-07T06:35:03;99710.66;;;26.44;48.52
18988;BME280;5494;51.796;10.952;2023-09-07T06:37:31;99704.44;;;26.86;46.33
18988;BME280;5494;51.796;10.952;2023-09-07T06:39:59;99698.69;;;27.15;46.35
18988;BME280;5494;51.796;10.952;2023-09-07T06:42:28;99703.19;;;27.14;46.36
18988;BME280;5494;51.796;10.952;2023-09-07T06:45:04;99697.84;;;27.14;46.07
18988;BME280;5494;51.796;10.952;2023-09-07T06:47:34;99708.94;;;26.77;46.72
18988;BME280;5494;51.796;10.952;2023-09-07T06:50:04;99700.91;;;26.61;47.71
18988;BME280;5494;51.796;10.952;2023-09-07T06:52:33;99712.09;;;26.73;45.78
18988;BME280;5494;51.796;10.952;2023-09-07T06:55:01;99712.19;;;26.47;47.91
18988;BME280;5494;51.796;10.952;2023-09-07T06:57:30;99720.44;;;25.76;47.63
18988;BME280;5494;51.796;10.952;2023-09-07T06:59:58;99721.91;;;25.96;48.07
18988;BME280;5494;51.796;10.952;2023-09-07T07:02:26;99716.72;;;25.95;49.39
18988;BME280;5494;51.796;10.952;2023-09-07T07:04:56;99715.84;;;26.12;48.69
18988;BME280;5494;51.796;10.952;2023-09-07T07:07:24;99731.53;;;25.89;48.80
18988;BME280;5494;51.796;10.952;2023-09-07T07:09:52;99717.88;;;25.66;49.57
18988;BME280;5494;51.796;10.952;2023-09-07T07:12:21;99723.88;;;25.94;49.18
18988;BME280;5494;51.796;10.952;2023-09-07T07:14:50;99719.09;;;25.72;48.57
18988;BME280;5494;51.796;10.952;2023-09-07T07:17:18;99718.41;;;25.70;48.79
18988;BME280;5494;51.796;10.952;2023-09-07T07:19:46;99717.41;;;25.71;49.38
18988;BME280;5494;51.796;10.952;2023-09-07T07:22:16;99715.66;;;26.39;48.75
18988;BME280;5494;51.796;10.952;2023-09-07T07:24:48;99713.63;;;26.07;47.89
18988;BME280;5494;51.796;10.952;2023-09-07T07:27:19;99718.72;;;25.93;49.91
18988;BME280;5494;51.796;10.952;2023-09-07T07:29:48;99709.41;;;26.64;47.15
18988;BME280;5494;51.796;10.952;2023-09-07T07:32:16;99710.50;;;26.12;48.74
18988;BME280;5494;51.796;10.952;2023-09-07T07:34:46;99713.44;;;25.75;49.42
18988;BME280;5494;51.796;10.952;2023-09-07T07:37:16;99713.25;;;25.50;50.39
18988;BME280;5494;51.796;10.952;2023-09-07T07:39:44;99712.44;;;25.76;51.06
18988;BME280;5494;51.796;10.952;2023-09-07T07:42:13;99705.09;;;26.30;50.15
18988;BME280;5494;51.796;10.952;2023-09-07T07:44:42;99709.13;;;26.76;47.80
18988;BME280;5494;51.796;10.952;2023-09-07T07:47:11;99705.25;;;26.70;48.04
18988;BME280;5494;51.796;10.952;2023-09-07T07:49:40;99711.16;;;26.98;48.17
18988;BME280;5494;51.796;10.952;2023-09-07T07:52:08;99709.50;;;27.05;46.24
18988;BME280;5494;51.796;10.952;2023-09-07T07:54:38;99710.59;;;26.78;48.37
18988;BME280;5494;51.796;10.952;2023-09-07T07:57:06;99702.69;;;27.11;47.43
18988;BME280;5494;51.796;10.952;2023-09-07T07:59:34;99700.03;;;27.51;46.31
18988;BME280;5494;51.796;10.952;2023-09-07T08:02:04;99715.72;;;27.22;46.94
18988;BME280;5494;51.796;10.952;2023-09-07T08:04:33;99710.53;;;27.77;47.13
18988;BME280;5494;51.796;10.952;2023-09-07T08:07:03;99704.19;;;27.78;45.98
18988;BME280;5494;51.796;10.952;2023-09-07T08:09:33;99701.00;;;28.46;43.57
18988;BME280;5494;51.796;10.952;2023-09-07T08:12:05;99711.53;;;26.95;47.35
18988;BME280;5494;51.796;10.952;2023-09-07T08:14:35;99711.53;;;27.19;47.03
18988;BME280;5494;51.796;10.952;2023-09-07T08:17:04;99700.19;;;27.25;46.07
18988;BME280;5494;51.796;10.952;2023-09-07T08:19:33;99699.56;;;26.65;48.09
18988;BME280;5494;51.796;10.952;2023-09-07T08:22:02;99700.03;;;27.51;46.21
18988;BME280;5494;51.796;10.952;2023-09-07T08:24:31;99703.03;;;27.72;45.56
18988;BME280;5494;51.796;10.952;2023-09-07T08:27:00;99707.34;;;27.00;46.63
18988;BME280;5494;51.796;10.952;2023-09-07T08:29:30;99718.00;;;26.42;48.18
18988;BME280;5494;51.796;10.952;2023-09-07T08:31:59;99706.34;;;26.93;49.10
18988;BME280;5494;51.796;10.952;2023-09-07T08:34:30;99710.13;;;28.12;47.04
18988;BME280;5494;51.796;10.952;2023-09-07T08:36:59;99703.25;;;29.19;42.63
18988;BME280;5494;51.796;10.952;2023-09-07T08:39:27;99711.13;;;29.43;42.62
18988;BME280;5494;51.796;10.952;2023-09-07T08:41:56;99698.03;;;29.03;41.90
18988;BME280;5494;51.796;10.952;2023-09-07T08:44:32;99702.16;;;28.43;44.55
18988;BME280;5494;51.796;10.952;2023-09-07T08:47:02;99696.63;;;28.53;44.36
18988;BME280;5494;51.796;10.952;2023-09-07T08:49:32;99699.44;;;28.12;45.29
18988;BME280;5494;51.796;10.952;2023-09-07T08:52:03;99707.22;;;27.10;48.11
18988;BME280;5494;51.796;10.952;2023-09-07T08:54:34;99701.75;;;27.52;47.55
18988;BME280;5494;51.796;10.952;2023-09-07T08:57:03;99703.19;;;27.79;47.05
18988;BME280;5494;51.796;10.952;2023-09-07T08:59:33;99708.50;;;26.98;47.67
18988;BME280;5494;51.796;10.952;2023-09-07T09:02:02;99707.44;;;28.12;47.03
18988;BME280;5494;51.796;10.952;2023-09-07T09:04:32;99704.88;;;28.74;44.58
18988;BME280;5494;51.796;10.952;2023-09-07T09:07:01;99707.31;;;29.15;44.28
18988;BME280;5494;51.796;10.952;2023-09-07T09:09:30;99694.84;;;29.22;43.48
18988;BME280;5494;51.796;10.952;2023-09-07T09:12:07;99702.03;;;28.37;46.00
18988;BME280;5494;51.796;10.952;2023-09-07T09:14:37;99699.44;;;29.59;43.32
18988;BME280;5494;51.796;10.952;2023-09-07T09:17:05;99700.50;;;29.87;42.24
18988;BME280;5494;51.796;10.952;2023-09-07T09:19:35;99710.06;;;29.82;42.34
18988;BME280;5494;51.796;10.952;2023-09-07T09:22:04;99701.00;;;29.68;43.71
18988;BME280;5494;51.796;10.952;2023-09-07T09:24:32;99705.97;;;30.52;41.93
18988;BME280;5494;51.796;10.952;2023-09-07T09:27:02;99703.28;;;30.88;40.41
18988;BME280;5494;51.796;10.952;2023-09-07T09:29:32;99701.38;;;31.04;40.55
18988;BME280;5494;51.796;10.952;2023-09-07T09:32:03;99701.88;;;29.23;43.99
18988;BME280;5494;51.796;10.952;2023-09-07T09:34:33;99700.56;;;29.19;44.02
18988;BME280;5494;51.796;10.952;2023-09-07T09:37:02;99701.88;;;28.69;45.56
18988;BME280;5494;51.796;10.952;2023-09-07T09:39:31;99694.78;;;29.53;43.82
18988;BME280;5494;51.796;10.952;2023-09-07T09:41:59;99696.88;;;29.43;44.59
18988;BME280;5494;51.796;10.952;2023-09-07T09:44:29;99696.94;;;29.57;44.93
18988;BME280;5494;51.796;10.952;2023-09-07T09:46:59;99699.28;;;29.90;43.16
18988;BME280;5494;51.796;10.952;2023-09-07T09:49:29;99696.06;;;30.09;42.52
18988;BME280;5494;51.796;10.952;2023-09-07T09:52:02;99691.25;;;29.38;44.05
18988;BME280;5494;51.796;10.952;2023-09-07T09:54:35;99688.19;;;30.51;41.60
18988;BME280;5494;51.796;10.952;2023-09-07T09:57:03;99693.28;;;30.17;42.10
18988;BME280;5494;51.796;10.952;2023-09-07T09:59:32;99691.94;;;29.69;43.09
18988;BME280;5494;51.796;10.952;2023-09-07T10:02:03;99687.91;;;29.73;43.89
18988;BME280;5494;51.796;10.952;2023-09-07T10:04:33;99692.44;;;29.72;43.73
18988;BME280;5494;51.796;10.952;2023-09-07T10:07:05;99692.13;;;29.07;43.93
18988;BME280;5494;51.796;10.952;2023-09-07T10:09:34;99684.19;;;29.89;42.62
18988;BME280;5494;51.796;10.952;2023-09-07T10:12:10;99674.72;;;30.01;41.93
18988;BME280;5494;51.796;10.952;2023-09-07T10:14:43;99685.63;;;29.24;42.81
18988;BME280;5494;51.796;10.952;2023-09-07T10:17:22;99677.06;;;29.66;43.02
18988;BME280;5494;51.796;10.952;2023-09-07T10:20:03;99672.31;;;30.71;40.83
18988;BME280;5494;51.796;10.952;2023-09-07T10:22:33;99676.53;;;30.80;40.34
18988;BME280;5494;51.796;10.952;2023-09-07T10:25:02;99676.56;;;29.48;43.20
18988;BME280;5494;51.796;10.952;2023-09-07T10:27:37;99672.03;;;29.11;43.66
18988;BME280;5494;51.796;10.952;2023-09-07T10:30:10;99671.56;;;28.46;43.97
18988;BME280;5494;51.796;10.952;2023-09-07T10:32:40;99678.13;;;28.66;45.01
18988;BME280;5494;51.796;10.952;2023-09-07T10:35:15;99671.69;;;29.06;43.43
18988;BME280;5494;51.796;10.952;2023-09-07T10:37:45;99675.53;;;28.89;43.03
18988;BME280;5494;51.796;10.952;2023-09-07T10:40:19;99671.97;;;28.35;44.04
18988;BME280;5494;51.796;10.952;2023-09-07T10:42:48;99663.59;;;28.91;44.39
18988;BME280;5494;51.796;10.952;2023-09-07T10:45:16;99663.56;;;27.91;44.71
18988;BME280;5494;51.796;10.952;2023-09-07T10:47:45;99667.63;;;27.78;45.12
18988;BME280;5494;51.796;10.952;2023-09-07T10:50:15;99657.63;;;27.56;45.88
18988;BME280;5494;51.796;10.952;2023-09-07T10:52:43;99652.75;;;27.68;46.71
18988;BME280;5494;51.796;10.952;2023-09-07T10:55:11;99653.59;;;27.60;46.81
18988;BME280;5494;51.796;10.952;2023-09-07T10:57:44;99660.66;;;27.37;47.20
18988;BME280;5494;51.796;10.952;2023-09-07T11:00:14;99656.13;;;27.54;45.35
18988;BME280;5494;51.796;10.952;2023-09-07T11:02:43;99656.63;;;27.41;47.37
18988;BME280;5494;51.796;10.952;2023-09-07T11:05:11;99655.47;;;27.19;46.34
18988;BME280;5494;51.796;10.952;2023-09-07T11:07:41;99661.47;;;27.05;47.57
18988;BME280;5494;51.796;10.952;2023-09-07T11:10:10;99652.75;;;26.87;47.54
18988;BME280;5494;51.796;10.952;2023-09-07T11:12:39;99651.75;;;26.80;47.35
18988;BME280;5494;51.796;10.952;2023-09-07T11:15:09;99649.09;;;26.88;47.44
18988;BME280;5494;51.796;10.952;2023-09-07T11:17:38;99647.63;;;27.10;47.19
18988;BME280;5494;51.796;10.952;2023-09-07T11:20:08;99646.78;;;26.93;47.42
18988;BME280;5494;51.796;10.952;2023-09-07T11:22:37;99639.03;;;26.65;48.33
18988;BME280;5494;51.796;10.952;2023-09-07T11:25:26;99644.53;;;26.64;47.94
18988;BME280;5494;51.796;10.952;2023-09-07T11:27:57;99633.28;;;26.94;47.14
18988;BME280;5494;51.796;10.952;2023-09-07T11:30:26;99651.44;;;26.83;46.87
18988;BME280;5494;51.796;10.952;2023-09-07T11:33:01;99639.91;;;26.74;48.07
18988;BME280;5494;51.796;10.952;2023-09-07T11:35:30;99639.75;;;26.76;48.07
18988;BME280;5494;51.796;10.952;2023-09-07T11:38:00;99633.44;;;27.01;47.43
18988;BME280;5494;51.796;10.952;2023-09-07T11:40:30;99640.75;;;26.91;46.35
18988;BME280;5494;51.796;10.952;2023-09-07T11:42:58;99636.22;;;26.75;46.73
18988;BME280;5494;51.796;10.952;2023-09-07T11:45:26;99634.72;;;26.81;47.51
18988;BME280;5494;51.796;10.952;2023-09-07T11:47:54;99629.09;;;27.00;46.37
18988;BME280;5494;51.796;10.952;2023-09-07T11:50:23;99634.44;;;26.92;46.26
18988;BME280;5494;51.796;10.952;2023-09-07T11:52:52;99624.09;;;26.97;46.40
18988;BME280;5494;51.796;10.952;2023-09-07T11:55:20;99626.72;;;26.73;46.40
18988;BME280;5494;51.796;10.952;2023-09-07T11:57:50;99630.72;;;26.60;46.96
18988;BME280;5494;51.796;10.952;2023-09-07T12:00:19;99633.72;;;26.74;46.24
18988;BME280;5494;51.796;10.952;2023-09-07T12:02:49;99629.38;;;26.73;46.47
18988;BME280;5494;51.796;10.952;2023-09-07T12:05:18;99634.72;;;26.73;45.71
18988;BME280;5494;51.796;10.952;2023-09-07T12:07:46;99639.78;;;26.92;45.90
18988;BME280;5494;51.796;10.952;2023-09-07T12:10:14;99624.44;;;27.10;45.64
18988;BME280;5494;51.796;10.952;2023-09-07T12:12:43;99624.75;;;27.07;45.24
18988;BME280;5494;51.796;10.952;2023-09-07T12:15:13;99627.59;;;26.97;45.36
18988;BME280;5494;51.796;10.952;2023-09-07T12:17:41;99632.06;;;26.89;46.12
18988;BME280;5494;51.796;10.952;2023-09-07T12:20:10;99621.09;;;26.92;46.15
18988;BME280;5494;51.796;10.952;2023-09-07T12:22:40;99616.59;;;26.92;46.21
18988;BME280;5494;51.796;10.952;2023-09-07T12:25:08;99623.75;;;27.00;46.12
18988;BME280;5494;51.796;10.952;2023-09-07T12:27:45;99622.78;;;27.17;45.83
18988;BME280;5494;51.796;10.952;2023-09-07T12:30:20;99617.75;;;27.06;44.75
18988;BME280;5494;51.796;10.952;2023-09-07T12:32:51;99613.72;;;27.18;44.60
18988;BME280;5494;51.796;10.952;2023-09-07T12:35:20;99616.91;;;27.30;44.46
18988;BME280;5494;51.796;10.952;2023-09-07T12:37:48;99620.22;;;27.32;45.39
18988;BME280;5494;51.796;10.952;2023-09-07T12:40:17;99614.03;;;27.48;44.60
18988;BME280;5494;51.796;10.952;2023-09-07T12:42:45;99612.03;;;27.50;44.16
18988;BME280;5494;51.796;10.952;2023-09-07T12:45:14;99606.03;;;27.39;43.84
18988;BME280;5494;51.796;10.952;2023-09-07T12:47:43;99608.69;;;27.48;44.55
18988;BME280;5494;51.796;10.952;2023-09-07T12:50:12;99612.25;;;27.24;43.99
18988;BME280;5494;51.796;10.952;2023-09-07T12:52:41;99610.75;;;27.29;45.28
18988;BME280;5494;51.796;10.952;2023-09-07T12:55:09;99597.16;;;27.47;43.46
18988;BME280;5494;51.796;10.952;2023-09-07T12:57:37;99617.22;;;27.35;43.01
18988;BME280;5494;51.796;10.952;2023-09-07T13:00:08;99606.88;;;27.32;42.64
18988;BME280;5494;51.796;10.952;2023-09-07T13:02:40;99601.38;;;27.41;43.08
18988;BME280;5494;51.796;10.952;2023-09-07T13:05:10;99601.69;;;27.55;43.42
18988;BME280;5494;51.796;10.952;2023-09-07T13:07:38;99609.38;;;27.66;43.85
18988;BME280;5494;51.796;10.952;2023-09-07T13:10:08;99600.19;;;27.44;43.41